sensor_id;sensor_type;location;lat;lon;timestamp;temperature;humidity
3980;DHT22;2004;52.452;13.120;2022-10-16T00:00:25;15.30;99.90
3980;DHT22;2004;52.452;13.120;2022-10-16T00:08:15;15.30;99.90
3980;DHT22;2004;52.452;13.120;2022-10-16T00:16:06;15.30;99.90
3980;DHT22;2004;52.452;13.120;2022-10-16T00:24:00;15.30;99.90
3980;DHT22;2004;52.452;13.120;2022-10-16T00:31:51;15.30;99.90
3980;DHT22;2004;52.452;13.120;2022-10-16T00:39:41;15.40;99.90
3980;DHT22;2004;52.452;13.120;2022-10-16T00:47:33;15.40;99.90
3980;DHT22;2004;52.452;13.120;2022-10-16T00:55:25;15.40;99.90
3980;DHT22;2004;52.452;13.120;2022-10-16T01:03:26;15.50;99.90
3980;DHT22;2004;52.452;13.120;2022-10-16T01:11:32;15.50;99.90
3980;DHT22;2004;52.452;13.120;2022-10-16T01:20:24;15.50;99.90
3980;DHT22;2004;52.452;13.120;2022-10-16T01:27:55;15.50;99.90
3980;DHT22;2004;52.452;13.120;2022-10-16T01:35:52;15.40;99.90
3980;DHT22;2004;52.452;13.120;2022-10-16T01:43:50;15.40;99.90
3980;DHT22;2004;52.452;13.120;2022-10-16T01:51:45;15.40;99.90
3980;DHT22;2004;52.452;13.120;2022-10-16T01:59:42;15.40;99.90
3980;DHT22;2004;52.452;13.120;2022-10-16T02:07:33;15.40;99.90
3980;DHT22;2004;52.452;13.120;2022-10-16T02:15:24;15.40;99.90
3980;DHT22;2004;52.452;13.120;2022-10-16T02:23:28;15.40;99.90
3980;DHT22;2004;52.452;13.120;2022-10-16T02:31:25;15.40;99.90
3980;DHT22;2004;52.452;13.120;2022-10-16T02:39:18;15.40;99.90
3980;DHT22;2004;52.452;13.120;2022-10-16T02:47:10;15.40;99.90
3980;DHT22;2004;52.452;13.120;2022-10-16T02:55:00;15.40;99.90
3980;DHT22;2004;52.452;13.120;2022-10-16T03:02:51;15.30;99.90
3980;DHT22;2004;52.452;13.120;2022-10-16T03:10:41;15.30;99.90
3980;DHT22;2004;52.452;13.120;2022-10-16T03:18:32;15.40;99.90
3980;DHT22;2004;52.452;13.120;2022-10-16T03:26:22;15.30;99.90
3980;DHT22;2004;52.452;13.120;2022-10-16T03:34:13;15.30;99.90
3980;DHT22;2004;52.452;13.120;2022-10-16T03:42:03;15.20;99.90
3980;DHT22;2004;52.452;13.120;2022-10-16T03:49:54;15.20;99.90
3980;DHT22;2004;52.452;13.120;2022-10-16T03:57:45;15.10;99.90
3980;DHT22;2004;52.452;13.120;2022-10-16T04:05:35;15.10;99.90
3980;DHT22;2004;52.452;13.120;2022-10-16T04:13:26;15.00;99.90
3980;DHT22;2004;52.452;13.120;2022-10-16T04:21:16;15.00;99.90
3980;DHT22;2004;52.452;13.120;2022-10-16T04:29:07;14.90;99.90
3980;DHT22;2004;52.452;13.120;2022-10-16T04:36:57;14.90;99.90
3980;DHT22;2004;52.452;13.120;2022-10-16T04:44:48;14.90;99.90
3980;DHT22;2004;52.452;13.120;2022-10-16T04:52:38;14.80;99.90
3980;DHT22;2004;52.452;13.120;2022-10-16T05:00:29;14.80;99.90
3980;DHT22;2004;52.452;13.120;2022-10-16T05:08:20;14.70;99.90
3980;DHT22;2004;52.452;13.120;2022-10-16T05:16:10;14.70;99.90
3980;DHT22;2004;52.452;13.120;2022-10-16T05:24:01;14.70;99.90
3980;DHT22;2004;52.452;13.120;2022-10-16T05:31:53;14.70;99.90
3980;DHT22;2004;52.452;13.120;2022-10-16T05:39:43;14.60;99.90
3980;DHT22;2004;52.452;13.120;2022-10-16T05:47:34;14.50;99.90
3980;DHT22;2004;52.452;13.120;2022-10-16T05:55:24;14.50;99.90
3980;DHT22;2004;52.452;13.120;2022-10-16T06:03:15;14.40;99.90
3980;DHT22;2004;52.452;13.120;2022-10-16T06:11:08;14.40;99.90
3980;DHT22;2004;52.452;13.120;2022-10-16T06:18:59;14.40;99.90
3980;DHT22;2004;52.452;13.120;2022-10-16T06:26:50;14.50;99.90
3980;DHT22;2004;52.452;13.120;2022-10-16T06:34:40;14.50;99.90
3980;DHT22;2004;52.452;13.120;2022-10-16T06:42:31;14.60;99.90
3980;DHT22;2004;52.452;13.120;2022-10-16T06:50:22;14.70;99.90
3980;DHT22;2004;52.452;13.120;2022-10-16T06:58:12;14.70;99.90
3980;DHT22;2004;52.452;13.120;2022-10-16T07:06:04;14.80;99.90
3980;DHT22;2004;52.452;13.120;2022-10-16T07:13:55;15.00;99.90
3980;DHT22;2004;52.452;13.120;2022-10-16T07:21:45;15.10;99.90
3980;DHT22;2004;52.452;13.120;2022-10-16T07:29:36;15.20;99.90
3980;DHT22;2004;52.452;13.120;2022-10-16T07:37:26;15.30;99.90
3980;DHT22;2004;52.452;13.120;2022-10-16T07:45:17;15.40;99.90
3980;DHT22;2004;52.452;13.120;2022-10-16T07:53:08;15.50;99.90
3980;DHT22;2004;52.452;13.120;2022-10-16T08:00:58;15.50;99.90
3980;DHT22;2004;52.452;13.120;2022-10-16T08:08:49;15.60;99.90
3980;DHT22;2004;52.452;13.120;2022-10-16T08:16:40;15.70;99.90
3980;DHT22;2004;52.452;13.120;2022-10-16T08:24:30;15.90;99.90
3980;DHT22;2004;52.452;13.120;2022-10-16T08:32:21;16.00;99.90
3980;DHT22;2004;52.452;13.120;2022-10-16T08:40:19;16.00;99.90
3980;DHT22;2004;52.452;13.120;2022-10-16T08:56:29;16.20;99.90
3980;DHT22;2004;52.452;13.120;2022-10-16T09:12:58;16.30;99.90
3980;DHT22;2004;52.452;13.120;2022-10-16T09:28:52;16.50;99.90
3980;DHT22;2004;52.452;13.120;2022-10-16T09:36:44;16.60;99.90
3980;DHT22;2004;52.452;13.120;2022-10-16T09:44:41;16.70;99.90
3980;DHT22;2004;52.452;13.120;2022-10-16T09:52:32;16.70;99.90
3980;DHT22;2004;52.452;13.120;2022-10-16T10:00:24;16.70;99.90
3980;DHT22;2004;52.452;13.120;2022-10-16T10:08:16;16.90;99.90
3980;DHT22;2004;52.452;13.120;2022-10-16T10:16:23;17.10;99.90
3980;DHT22;2004;52.452;13.120;2022-10-16T10:24:16;17.20;99.90
3980;DHT22;2004;52.452;13.120;2022-10-16T10:32:31;17.30;99.90
3980;DHT22;2004;52.452;13.120;2022-10-16T10:40:52;17.30;99.90
3980;DHT22;2004;52.452;13.120;2022-10-16T11:05:13;18.10;99.90
3980;DHT22;2004;52.452;13.120;2022-10-16T11:30:02;18.20;99.90
3980;DHT22;2004;52.452;13.120;2022-10-16T11:37:56;18.20;99.90
3980;DHT22;2004;52.452;13.120;2022-10-16T11:45:54;18.10;99.90
3980;DHT22;2004;52.452;13.120;2022-10-16T11:53:57;17.90;99.90
3980;DHT22;2004;52.452;13.120;2022-10-16T12:02:00;17.80;99.90
3980;DHT22;2004;52.452;13.120;2022-10-16T12:09:57;17.70;99.90
3980;DHT22;2004;52.452;13.120;2022-10-16T12:17:51;17.60;99.90
3980;DHT22;2004;52.452;13.120;2022-10-16T12:25:42;17.70;99.90
3980;DHT22;2004;52.452;13.120;2022-10-16T12:33:42;17.90;99.90
3980;DHT22;2004;52.452;13.120;2022-10-16T12:41:35;18.00;99.90
3980;DHT22;2004;52.452;13.120;2022-10-16T13:22:32;18.60;99.40
3980;DHT22;2004;52.452;13.120;2022-10-16T13:30:27;18.50;99.90
3980;DHT22;2004;52.452;13.120;2022-10-16T13:38:23;18.50;99.90
3980;DHT22;2004;52.452;13.120;2022-10-16T13:46:20;18.50;99.90
3980;DHT22;2004;52.452;13.120;2022-10-16T13:54:11;18.60;99.90
3980;DHT22;2004;52.452;13.120;2022-10-16T14:02:19;18.60;99.90
3980;DHT22;2004;52.452;13.120;2022-10-16T14:10:31;18.70;99.90
3980;DHT22;2004;52.452;13.120;2022-10-16T14:18:23;18.70;99.90
3980;DHT22;2004;52.452;13.120;2022-10-16T14:26:18;18.70;99.90
3980;DHT22;2004;52.452;13.120;2022-10-16T14:34:33;18.70;99.90
3980;DHT22;2004;52.452;13.120;2022-10-16T14:42:25;18.60;99.90
3980;DHT22;2004;52.452;13.120;2022-10-16T14:50:15;18.50;99.30
3980;DHT22;2004;52.452;13.120;2022-10-16T14:58:19;18.50;97.60
3980;DHT22;2004;52.452;13.120;2022-10-16T15:06:12;18.50;98.60
3980;DHT22;2004;52.452;13.120;2022-10-16T15:14:03;18.40;96.60
3980;DHT22;2004;52.452;13.120;2022-10-16T15:21:54;18.30;99.10
3980;DHT22;2004;52.452;13.120;2022-10-16T15:29:44;18.10;97.40
3980;DHT22;2004;52.452;13.120;2022-10-16T15:37:35;18.00;98.00
3980;DHT22;2004;52.452;13.120;2022-10-16T15:45:25;17.80;99.10
3980;DHT22;2004;52.452;13.120;2022-10-16T15:53:16;17.70;99.60
3980;DHT22;2004;52.452;13.120;2022-10-16T16:01:06;17.50;99.90
3980;DHT22;2004;52.452;13.120;2022-10-16T16:08:59;17.40;99.90
3980;DHT22;2004;52.452;13.120;2022-10-16T16:16:50;17.20;99.90
3980;DHT22;2004;52.452;13.120;2022-10-16T16:24:40;17.00;99.90
3980;DHT22;2004;52.452;13.120;2022-10-16T16:32:31;16.80;99.90
3980;DHT22;2004;52.452;13.120;2022-10-16T16:40:21;16.70;99.90
3980;DHT22;2004;52.452;13.120;2022-10-16T16:48:12;16.40;99.90
3980;DHT22;2004;52.452;13.120;2022-10-16T16:56:04;16.20;99.90
3980;DHT22;2004;52.452;13.120;2022-10-16T17:03:57;16.00;99.90
3980;DHT22;2004;52.452;13.120;2022-10-16T17:11:48;15.70;99.90
3980;DHT22;2004;52.452;13.120;2022-10-16T17:19:38;15.50;99.90
3980;DHT22;2004;52.452;13.120;2022-10-16T17:27:29;15.40;99.90
3980;DHT22;2004;52.452;13.120;2022-10-16T17:35:19;15.20;99.90
3980;DHT22;2004;52.452;13.120;2022-10-16T17:43:10;15.00;99.90
3980;DHT22;2004;52.452;13.120;2022-10-16T17:51:03;14.80;99.90
3980;DHT22;2004;52.452;13.120;2022-10-16T17:58:57;14.60;99.90
3980;DHT22;2004;52.452;13.120;2022-10-16T18:06:49;14.40;99.90
3980;DHT22;2004;52.452;13.120;2022-10-16T18:14:39;14.30;99.90
3980;DHT22;2004;52.452;13.120;2022-10-16T18:22:34;14.10;99.90
3980;DHT22;2004;52.452;13.120;2022-10-16T18:30:25;14.00;99.90
3980;DHT22;2004;52.452;13.120;2022-10-16T18:38:16;13.90;99.90
3980;DHT22;2004;52.452;13.120;2022-10-16T18:46:10;13.90;99.90
3980;DHT22;2004;52.452;13.120;2022-10-16T18:54:06;13.80;99.90
3980;DHT22;2004;52.452;13.120;2022-10-16T19:01:59;13.60;99.90
3980;DHT22;2004;52.452;13.120;2022-10-16T19:09:49;13.50;99.90
3980;DHT22;2004;52.452;13.120;2022-10-16T19:17:40;13.40;99.90
3980;DHT22;2004;52.452;13.120;2022-10-16T19:25:31;13.30;99.90
3980;DHT22;2004;52.452;13.120;2022-10-16T19:33:25;13.20;99.90
3980;DHT22;2004;52.452;13.120;2022-10-16T19:41:17;13.30;99.90
3980;DHT22;2004;52.452;13.120;2022-10-16T19:49:10;13.20;99.90
3980;DHT22;2004;52.452;13.120;2022-10-16T19:57:01;13.10;99.90
3980;DHT22;2004;52.452;13.120;2022-10-16T20:04:51;13.10;99.90
3980;DHT22;2004;52.452;13.120;2022-10-16T20:12:42;13.00;99.90
3980;DHT22;2004;52.452;13.120;2022-10-16T20:20:39;13.00;99.90
3980;DHT22;2004;52.452;13.120;2022-10-16T20:28:31;12.90;99.90
3980;DHT22;2004;52.452;13.120;2022-10-16T20:36:23;12.80;99.90
3980;DHT22;2004;52.452;13.120;2022-10-16T20:44:14;12.70;99.90
3980;DHT22;2004;52.452;13.120;2022-10-16T20:52:05;12.70;99.90
3980;DHT22;2004;52.452;13.120;2022-10-16T20:59:55;12.70;99.90
3980;DHT22;2004;52.452;13.120;2022-10-16T21:07:46;12.70;99.90
3980;DHT22;2004;52.452;13.120;2022-10-16T21:15:36;12.80;99.90
3980;DHT22;2004;52.452;13.120;2022-10-16T21:23:27;12.70;99.90
3980;DHT22;2004;52.452;13.120;2022-10-16T21:31:18;12.80;99.90
3980;DHT22;2004;52.452;13.120;2022-10-16T21:39:12;12.70;99.90
3980;DHT22;2004;52.452;13.120;2022-10-16T21:47:03;12.70;99.90
3980;DHT22;2004;52.452;13.120;2022-10-16T21:54:53;12.70;99.90
3980;DHT22;2004;52.452;13.120;2022-10-16T22:02:44;12.60;99.90
3980;DHT22;2004;52.452;13.120;2022-10-16T22:10:35;12.50;99.90
3980;DHT22;2004;52.452;13.120;2022-10-16T22:18:26;12.50;99.90
3980;DHT22;2004;52.452;13.120;2022-10-16T22:26:17;12.50;99.90
3980;DHT22;2004;52.452;13.120;2022-10-16T22:34:11;12.40;99.90
3980;DHT22;2004;52.452;13.120;2022-10-16T22:42:01;12.40;99.90
3980;DHT22;2004;52.452;13.120;2022-10-16T22:49:52;12.40;99.90
3980;DHT22;2004;52.452;13.120;2022-10-16T22:57:44;12.40;99.90
3980;DHT22;2004;52.452;13.120;2022-10-16T23:05:40;12.40;99.90
3980;DHT22;2004;52.452;13.120;2022-10-16T23:13:31;12.40;99.90
3980;DHT22;2004;52.452;13.120;2022-10-16T23:21:23;12.50;99.90
3980;DHT22;2004;52.452;13.120;2022-10-16T23:29:14;12.50;99.90
3980;DHT22;2004;52.452;13.120;2022-10-16T23:37:05;12.60;99.90
3980;DHT22;2004;52.452;13.120;2022-10-16T23:44:55;12.60;99.90
3980;DHT22;2004;52.452;13.120;2022-10-16T23:52:46;12.70;99.90
